DLH77A EDDF-LFBD
Flight info
| Callsign | DLH77A |
|---|---|
| Flight time | 1h 32m |
| Altitude | 36000 |
| Route | SOBRA2L SOBRA Y180 DIK UN857 TOLVU/N0434F350 DCT RAPOR DCT GIMER/N0439F370 DCT AHVEC UN857 DISAK DCT ARKIP DCT ARNAV DCT LMG |
| Aircraft | A320/M-SDE3FGHIRWY/LB1 |
Departure
| Time | 2026-04-15 13:49 |
|---|---|
| Airport | Frankfurt Main Airport (EDDF) |
Arrival
| Time | 2026-04-15 15:21 |
|---|---|
| Airport | Bordeaux–Mérignac Airport (LFBD) |
| Time | Latitude | Longitude | Altitude | Speed | Heading |
|---|---|---|---|---|---|
| 2026-04-15 13:23 | 50.04466 | 8.56485 | 360 ft | 0 kts | 159° |
| 2026-04-15 13:38 | 50.04482 | 8.56475 | 379 ft | 4 kts | 159° |
| 2026-04-15 13:38 | 50.04507 | 8.56462 | 358 ft | 4 kts | 167° |
| 2026-04-15 13:38 | 50.04531 | 8.56460 | 362 ft | 4 kts | 216° |
| 2026-04-15 13:39 | 50.04537 | 8.56468 | 361 ft | 0 kts | 249° |
| 2026-04-15 13:39 | 50.04529 | 8.56435 | 357 ft | 4 kts | 249° |
| 2026-04-15 13:39 | 50.04520 | 8.56395 | 356 ft | 4 kts | 249° |
| 2026-04-15 13:39 | 50.04516 | 8.56382 | 356 ft | 0 kts | 249° |
| 2026-04-15 13:41 | 50.04514 | 8.56370 | 363 ft | 6 kts | 249° |
| 2026-04-15 13:41 | 50.04491 | 8.56282 | 357 ft | 9 kts | 249° |
| 2026-04-15 13:42 | 50.04471 | 8.56204 | 357 ft | 7 kts | 252° |
| 2026-04-15 13:42 | 50.04449 | 8.56106 | 363 ft | 11 kts | 251° |
| 2026-04-15 13:42 | 50.04406 | 8.56028 | 359 ft | 9 kts | 200° |
| 2026-04-15 13:42 | 50.04352 | 8.56051 | 358 ft | 8 kts | 160° |
| 2026-04-15 13:43 | 50.04295 | 8.56070 | 355 ft | 12 kts | 187° |
| 2026-04-15 13:43 | 50.04249 | 8.55981 | 361 ft | 10 kts | 249° |
| 2026-04-15 13:43 | 50.04216 | 8.55843 | 355 ft | 18 kts | 250° |
| 2026-04-15 13:43 | 50.04168 | 8.55642 | 358 ft | 21 kts | 250° |
| 2026-04-15 13:44 | 50.04114 | 8.55416 | 353 ft | 23 kts | 249° |
| 2026-04-15 13:44 | 50.04058 | 8.55180 | 355 ft | 24 kts | 250° |
| 2026-04-15 13:44 | 50.03998 | 8.54933 | 358 ft | 25 kts | 249° |
| 2026-04-15 13:44 | 50.03933 | 8.54660 | 355 ft | 28 kts | 250° |
| 2026-04-15 13:45 | 50.03874 | 8.54415 | 352 ft | 14 kts | 249° |
| 2026-04-15 13:45 | 50.03820 | 8.54284 | 350 ft | 14 kts | 234° |
| 2026-04-15 13:45 | 50.03780 | 8.54142 | 353 ft | 16 kts | 250° |
| 2026-04-15 13:47 | 50.03434 | 8.52733 | 331 ft | 9 kts | 250° |
| 2026-04-15 13:47 | 50.03410 | 8.52648 | 333 ft | 8 kts | 234° |
| 2026-04-15 13:47 | 50.03371 | 8.52598 | 333 ft | 7 kts | 210° |
| 2026-04-15 13:48 | 50.03354 | 8.52594 | 334 ft | 0 kts | 181° |
| 2026-04-15 13:48 | 50.03230 | 8.52596 | 335 ft | 52 kts | 179° |
| 2026-04-15 13:48 | 50.02628 | 8.52602 | 335 ft | 118 kts | 180° |
| 2026-04-15 13:49 | 50.01624 | 8.52612 | 337 ft | 168 kts | 179° |
| 2026-04-15 13:49 | 50.00430 | 8.52637 | 930 ft | 170 kts | 179° |
| 2026-04-15 13:49 | 49.99246 | 8.52667 | 1685 ft | 173 kts | 179° |
| 2026-04-15 13:49 | 49.97970 | 8.52702 | 2053 ft | 194 kts | 177° |
| 2026-04-15 13:50 | 49.96548 | 8.52801 | 2377 ft | 214 kts | 176° |
| 2026-04-15 13:50 | 49.95011 | 8.52925 | 3001 ft | 225 kts | 176° |
| 2026-04-15 13:50 | 49.93436 | 8.53050 | 3825 ft | 228 kts | 176° |
| 2026-04-15 13:50 | 49.91849 | 8.53171 | 4711 ft | 229 kts | 176° |
| 2026-04-15 13:51 | 49.90251 | 8.53287 | 5560 ft | 230 kts | 177° |
| 2026-04-15 13:51 | 49.88640 | 8.53402 | 6384 ft | 233 kts | 178° |
| 2026-04-15 13:51 | 49.87018 | 8.53232 | 7128 ft | 237 kts | 193° |
| 2026-04-15 13:51 | 49.85382 | 8.52415 | 7557 ft | 259 kts | 200° |
| 2026-04-15 13:52 | 49.83641 | 8.51428 | 8157 ft | 272 kts | 200° |
| 2026-04-15 13:52 | 49.81845 | 8.50405 | 8986 ft | 277 kts | 201° |
| 2026-04-15 13:52 | 49.80023 | 8.49369 | 9856 ft | 281 kts | 201° |
| 2026-04-15 13:52 | 49.78248 | 8.48046 | 10506 ft | 292 kts | 216° |
| 2026-04-15 13:53 | 49.76820 | 8.45679 | 10776 ft | 314 kts | 240° |
| 2026-04-15 13:53 | 49.76139 | 8.42435 | 11342 ft | 324 kts | 264° |
| 2026-04-15 13:53 | 49.76345 | 8.38941 | 12074 ft | 330 kts | 282° |
| 2026-04-15 13:53 | 49.76893 | 8.35471 | 12872 ft | 333 kts | 283° |
| 2026-04-15 13:54 | 49.77454 | 8.31979 | 13658 ft | 336 kts | 283° |
| 2026-04-15 13:54 | 49.78024 | 8.28456 | 14372 ft | 340 kts | 283° |
| 2026-04-15 13:54 | 49.78600 | 8.24892 | 15029 ft | 343 kts | 283° |
| 2026-04-15 13:54 | 49.79178 | 8.21295 | 15673 ft | 346 kts | 283° |
| 2026-04-15 13:55 | 49.79761 | 8.17662 | 16339 ft | 350 kts | 283° |
| 2026-04-15 13:55 | 49.80349 | 8.13990 | 17013 ft | 352 kts | 283° |
| 2026-04-15 13:55 | 49.80937 | 8.10297 | 17677 ft | 355 kts | 283° |
| 2026-04-15 13:55 | 49.81530 | 8.06559 | 18333 ft | 359 kts | 283° |
| 2026-04-15 13:56 | 49.82125 | 8.02789 | 18903 ft | 362 kts | 283° |
| 2026-04-15 13:56 | 49.82723 | 7.98991 | 19460 ft | 365 kts | 283° |
| 2026-04-15 13:56 | 49.83329 | 7.95162 | 20026 ft | 367 kts | 283° |
| 2026-04-15 13:56 | 49.83937 | 7.91302 | 20582 ft | 370 kts | 283° |
| 2026-04-15 13:57 | 49.84547 | 7.87412 | 21128 ft | 373 kts | 283° |
| 2026-04-15 13:57 | 49.85159 | 7.83492 | 21661 ft | 376 kts | 283° |
| 2026-04-15 13:57 | 49.85774 | 7.79539 | 22181 ft | 379 kts | 283° |
| 2026-04-15 13:57 | 49.86395 | 7.75556 | 22692 ft | 382 kts | 283° |
| 2026-04-15 13:58 | 49.87025 | 7.71552 | 23201 ft | 384 kts | 283° |
| 2026-04-15 13:58 | 49.87660 | 7.67519 | 23763 ft | 385 kts | 283° |
| 2026-04-15 13:58 | 49.88291 | 7.63471 | 24197 ft | 387 kts | 283° |
| 2026-04-15 13:58 | 49.88916 | 7.59402 | 24618 ft | 389 kts | 282° |
| 2026-04-15 13:59 | 49.89154 | 7.55226 | 25013 ft | 392 kts | 266° |
| 2026-04-15 13:59 | 49.88758 | 7.51036 | 25401 ft | 394 kts | 261° |
| 2026-04-15 13:59 | 49.88291 | 7.46835 | 25806 ft | 397 kts | 261° |
| 2026-04-15 13:59 | 49.87966 | 7.43982 | 26069 ft | 398 kts | 261° |
| 2026-04-15 14:00 | 49.87477 | 7.39748 | 26452 ft | 401 kts | 261° |
| 2026-04-15 14:00 | 49.86982 | 7.35483 | 26849 ft | 403 kts | 261° |
| 2026-04-15 14:00 | 49.86484 | 7.31194 | 27228 ft | 405 kts | 261° |
| 2026-04-15 14:00 | 49.85988 | 7.26884 | 27597 ft | 407 kts | 261° |
| 2026-04-15 14:01 | 49.84993 | 7.18206 | 28382 ft | 411 kts | 261° |
| 2026-04-15 14:01 | 49.84486 | 7.13844 | 28752 ft | 413 kts | 261° |
| 2026-04-15 14:01 | 49.83974 | 7.09455 | 29113 ft | 415 kts | 261° |
| 2026-04-15 14:02 | 49.83459 | 7.05035 | 29455 ft | 418 kts | 261° |
| 2026-04-15 14:02 | 49.82939 | 7.00594 | 29809 ft | 420 kts | 261° |
| 2026-04-15 14:02 | 49.82417 | 6.96144 | 30155 ft | 422 kts | 261° |
| 2026-04-15 14:02 | 49.81888 | 6.91659 | 30450 ft | 424 kts | 261° |
| 2026-04-15 14:03 | 49.81355 | 6.87149 | 30721 ft | 426 kts | 261° |
| 2026-04-15 14:03 | 49.80818 | 6.82636 | 31010 ft | 428 kts | 261° |
| 2026-04-15 14:03 | 49.80277 | 6.78101 | 31284 ft | 429 kts | 261° |
| 2026-04-15 14:03 | 49.79732 | 6.73554 | 31586 ft | 430 kts | 261° |
| 2026-04-15 14:04 | 49.79185 | 6.69006 | 31969 ft | 429 kts | 261° |
| 2026-04-15 14:04 | 49.78641 | 6.64484 | 32386 ft | 427 kts | 261° |
| 2026-04-15 14:04 | 49.78096 | 6.59975 | 32782 ft | 426 kts | 261° |
| 2026-04-15 14:04 | 49.77552 | 6.55488 | 33186 ft | 424 kts | 261° |
| 2026-04-15 14:05 | 49.77006 | 6.51001 | 33577 ft | 423 kts | 261° |
| 2026-04-15 14:05 | 49.76460 | 6.46540 | 33970 ft | 422 kts | 260° |
| 2026-04-15 14:05 | 49.75914 | 6.42091 | 34336 ft | 420 kts | 261° |
| 2026-04-15 14:05 | 49.75371 | 6.37654 | 34665 ft | 419 kts | 261° |
| 2026-04-15 14:06 | 49.74829 | 6.33227 | 34973 ft | 418 kts | 261° |
| 2026-04-15 14:06 | 49.74286 | 6.28822 | 35311 ft | 416 kts | 260° |
| 2026-04-15 14:06 | 49.73741 | 6.24434 | 35638 ft | 415 kts | 260° |
| 2026-04-15 14:06 | 49.73196 | 6.20062 | 35936 ft | 414 kts | 260° |
| 2026-04-15 14:07 | 49.72648 | 6.15700 | 36143 ft | 414 kts | 260° |
| 2026-04-15 14:07 | 49.71556 | 6.07052 | 36195 ft | 407 kts | 260° |
| 2026-04-15 14:08 | 49.70469 | 5.98487 | 36192 ft | 406 kts | 259° |
| 2026-04-15 14:08 | 49.69381 | 5.89930 | 36197 ft | 406 kts | 259° |
| 2026-04-15 14:09 | 49.68291 | 5.81389 | 36198 ft | 404 kts | 259° |
| 2026-04-15 14:09 | 49.67202 | 5.72892 | 36200 ft | 403 kts | 259° |
| 2026-04-15 14:10 | 49.66107 | 5.64401 | 36204 ft | 403 kts | 259° |
| 2026-04-15 14:10 | 49.65001 | 5.55920 | 36207 ft | 403 kts | 259° |
| 2026-04-15 14:11 | 49.63887 | 5.47443 | 36206 ft | 403 kts | 258° |
| 2026-04-15 14:11 | 49.62766 | 5.38976 | 36212 ft | 403 kts | 258° |
| 2026-04-15 14:12 | 49.61164 | 5.30719 | 36202 ft | 402 kts | 252° |
| 2026-04-15 14:12 | 49.59407 | 5.22543 | 36204 ft | 401 kts | 252° |
| 2026-04-15 14:13 | 49.57788 | 5.14316 | 36203 ft | 401 kts | 255° |
| 2026-04-15 14:13 | 49.56373 | 5.06003 | 36202 ft | 401 kts | 255° |
| 2026-04-15 14:14 | 49.54960 | 4.97699 | 36201 ft | 401 kts | 255° |
| 2026-04-15 14:14 | 49.53490 | 4.89423 | 36215 ft | 400 kts | 253° |
| 2026-04-15 14:15 | 49.52001 | 4.81182 | 36216 ft | 399 kts | 253° |
| 2026-04-15 14:15 | 49.50513 | 4.72959 | 36212 ft | 399 kts | 253° |
| 2026-04-15 14:16 | 49.49029 | 4.64748 | 36206 ft | 398 kts | 253° |
| 2026-04-15 14:16 | 49.47538 | 4.56557 | 36199 ft | 398 kts | 253° |
| 2026-04-15 14:17 | 49.46041 | 4.48372 | 36195 ft | 397 kts | 253° |
| 2026-04-15 14:17 | 49.44530 | 4.40205 | 36209 ft | 397 kts | 252° |
| 2026-04-15 14:18 | 49.43018 | 4.32061 | 36193 ft | 396 kts | 252° |
| 2026-04-15 14:18 | 49.41509 | 4.23924 | 36192 ft | 396 kts | 252° |
| 2026-04-15 14:19 | 49.40007 | 4.15800 | 36185 ft | 396 kts | 252° |
| 2026-04-15 14:19 | 49.38490 | 4.07681 | 36184 ft | 395 kts | 252° |
| 2026-04-15 14:20 | 49.36938 | 3.99594 | 36176 ft | 395 kts | 249° |
| 2026-04-15 14:20 | 49.34322 | 3.92250 | 36178 ft | 393 kts | 236° |
| 2026-04-15 14:21 | 49.31284 | 3.85269 | 36179 ft | 394 kts | 236° |
| 2026-04-15 14:21 | 49.28250 | 3.78278 | 36180 ft | 394 kts | 236° |
| 2026-04-15 14:22 | 49.25212 | 3.71301 | 36174 ft | 394 kts | 236° |
| 2026-04-15 14:22 | 49.22148 | 3.64285 | 36168 ft | 394 kts | 236° |
| 2026-04-15 14:23 | 49.19091 | 3.57313 | 36174 ft | 395 kts | 236° |
| 2026-04-15 14:23 | 49.16029 | 3.50355 | 36199 ft | 394 kts | 236° |
| 2026-04-15 14:24 | 49.12968 | 3.43425 | 36202 ft | 393 kts | 236° |
| 2026-04-15 14:24 | 49.09920 | 3.36517 | 36201 ft | 392 kts | 236° |
| 2026-04-15 14:25 | 49.06871 | 3.29630 | 36197 ft | 391 kts | 236° |
| 2026-04-15 14:25 | 49.03823 | 3.22763 | 36198 ft | 391 kts | 236° |
| 2026-04-15 14:26 | 49.00773 | 3.15909 | 36177 ft | 391 kts | 236° |
| 2026-04-15 14:26 | 48.97715 | 3.09063 | 36178 ft | 391 kts | 236° |
| 2026-04-15 14:27 | 48.94654 | 3.02232 | 36203 ft | 390 kts | 235° |
| 2026-04-15 14:27 | 48.91599 | 2.95430 | 36202 ft | 389 kts | 235° |
| 2026-04-15 14:28 | 48.88550 | 2.88661 | 36196 ft | 388 kts | 235° |
| 2026-04-15 14:28 | 48.85508 | 2.81906 | 36192 ft | 387 kts | 235° |
| 2026-04-15 14:29 | 48.82460 | 2.75172 | 36198 ft | 387 kts | 235° |
| 2026-04-15 14:29 | 48.79416 | 2.68450 | 36189 ft | 386 kts | 235° |
| 2026-04-15 14:30 | 48.76370 | 2.61743 | 36195 ft | 386 kts | 234° |
| 2026-04-15 14:30 | 48.73322 | 2.55052 | 36219 ft | 385 kts | 234° |
| 2026-04-15 14:31 | 48.70276 | 2.48387 | 36218 ft | 384 kts | 234° |
| 2026-04-15 14:31 | 48.67233 | 2.41738 | 36214 ft | 384 kts | 234° |
| 2026-04-15 14:32 | 48.64195 | 2.35117 | 36208 ft | 383 kts | 234° |
| 2026-04-15 14:32 | 48.61150 | 2.28509 | 36188 ft | 383 kts | 234° |
| 2026-04-15 14:33 | 48.57838 | 2.22231 | 36188 ft | 383 kts | 222° |
| 2026-04-15 14:33 | 48.55689 | 2.19854 | 36194 ft | 384 kts | 211° |
| 2026-04-15 14:33 | 48.53255 | 2.18167 | 36183 ft | 387 kts | 201° |
| 2026-04-15 14:34 | 48.47979 | 2.16320 | 36179 ft | 390 kts | 196° |
| 2026-04-15 14:34 | 48.42666 | 2.14617 | 36191 ft | 390 kts | 196° |
| 2026-04-15 14:35 | 48.37349 | 2.12908 | 36181 ft | 391 kts | 196° |
| 2026-04-15 14:35 | 48.32027 | 2.11192 | 36185 ft | 392 kts | 196° |
| 2026-04-15 14:36 | 48.26574 | 2.10401 | 36184 ft | 401 kts | 180° |
| 2026-04-15 14:36 | 48.21015 | 2.11555 | 36187 ft | 404 kts | 177° |
| 2026-04-15 14:37 | 48.10226 | 2.12588 | 36190 ft | 394 kts | 192° |
| 2026-04-15 14:38 | 48.04782 | 2.11518 | 36183 ft | 395 kts | 192° |
| 2026-04-15 14:38 | 47.99328 | 2.10476 | 36176 ft | 395 kts | 192° |
| 2026-04-15 14:39 | 47.93866 | 2.09438 | 36181 ft | 396 kts | 192° |
| 2026-04-15 14:39 | 47.88402 | 2.08389 | 36185 ft | 396 kts | 192° |
| 2026-04-15 14:40 | 47.82933 | 2.07351 | 36191 ft | 397 kts | 192° |
| 2026-04-15 14:40 | 47.77455 | 2.06320 | 36166 ft | 397 kts | 192° |
| 2026-04-15 14:41 | 47.71977 | 2.05281 | 36175 ft | 397 kts | 192° |
| 2026-04-15 14:41 | 47.66495 | 2.04232 | 36182 ft | 397 kts | 192° |
| 2026-04-15 14:42 | 47.61177 | 2.02393 | 36182 ft | 389 kts | 205° |
| 2026-04-15 14:42 | 47.56134 | 1.99451 | 36170 ft | 390 kts | 205° |
| 2026-04-15 14:43 | 47.51081 | 1.96527 | 36181 ft | 390 kts | 205° |
| 2026-04-15 14:43 | 47.46019 | 1.93606 | 36183 ft | 391 kts | 205° |
| 2026-04-15 14:44 | 47.40954 | 1.90687 | 36189 ft | 391 kts | 205° |
| 2026-04-15 14:44 | 47.35883 | 1.87769 | 36176 ft | 391 kts | 205° |
| 2026-04-15 14:45 | 47.30806 | 1.84849 | 36193 ft | 392 kts | 205° |
| 2026-04-15 14:45 | 47.25720 | 1.81934 | 36198 ft | 392 kts | 205° |
| 2026-04-15 14:46 | 47.20634 | 1.79018 | 36200 ft | 392 kts | 205° |
| 2026-04-15 14:46 | 47.15544 | 1.76122 | 36185 ft | 393 kts | 205° |
| 2026-04-15 14:47 | 47.10436 | 1.73248 | 36192 ft | 393 kts | 205° |
| 2026-04-15 14:47 | 47.07883 | 1.71816 | 35929 ft | 393 kts | 205° |
| 2026-04-15 14:47 | 47.05326 | 1.70383 | 35680 ft | 393 kts | 205° |
| 2026-04-15 14:47 | 47.02777 | 1.68952 | 35434 ft | 392 kts | 205° |
| 2026-04-15 14:48 | 47.00234 | 1.67526 | 35190 ft | 390 kts | 205° |
| 2026-04-15 14:48 | 46.97703 | 1.66113 | 34952 ft | 388 kts | 205° |
| 2026-04-15 14:48 | 46.95188 | 1.64709 | 34694 ft | 386 kts | 205° |
| 2026-04-15 14:48 | 46.92681 | 1.63311 | 34474 ft | 385 kts | 205° |
| 2026-04-15 14:49 | 46.90185 | 1.61921 | 34235 ft | 383 kts | 205° |
| 2026-04-15 14:49 | 46.87705 | 1.60540 | 33963 ft | 381 kts | 205° |
| 2026-04-15 14:49 | 46.85234 | 1.59161 | 33698 ft | 379 kts | 205° |
| 2026-04-15 14:49 | 46.82775 | 1.57785 | 33432 ft | 378 kts | 205° |
| 2026-04-15 14:50 | 46.80323 | 1.56414 | 33164 ft | 377 kts | 205° |
| 2026-04-15 14:50 | 46.77880 | 1.55053 | 32896 ft | 375 kts | 205° |
| 2026-04-15 14:50 | 46.76232 | 1.54138 | 32723 ft | 375 kts | 205° |
| 2026-04-15 14:50 | 46.73799 | 1.52787 | 32458 ft | 374 kts | 205° |
| 2026-04-15 14:51 | 46.71374 | 1.51443 | 32198 ft | 372 kts | 205° |
| 2026-04-15 14:51 | 46.68954 | 1.50103 | 31949 ft | 371 kts | 205° |
| 2026-04-15 14:51 | 46.66539 | 1.48770 | 31697 ft | 370 kts | 205° |
| 2026-04-15 14:51 | 46.64133 | 1.47447 | 31448 ft | 369 kts | 205° |
| 2026-04-15 14:52 | 46.61734 | 1.46125 | 31196 ft | 368 kts | 205° |
| 2026-04-15 14:52 | 46.59338 | 1.44802 | 30955 ft | 368 kts | 205° |
| 2026-04-15 14:52 | 46.56952 | 1.43487 | 30708 ft | 367 kts | 205° |
| 2026-04-15 14:52 | 46.54567 | 1.42173 | 30445 ft | 366 kts | 205° |
| 2026-04-15 14:53 | 46.52186 | 1.40860 | 30199 ft | 366 kts | 205° |
| 2026-04-15 14:53 | 46.49810 | 1.39550 | 29913 ft | 365 kts | 205° |
| 2026-04-15 14:53 | 46.47444 | 1.38249 | 29639 ft | 363 kts | 205° |
| 2026-04-15 14:53 | 46.45086 | 1.36954 | 29360 ft | 362 kts | 205° |
| 2026-04-15 14:54 | 46.42739 | 1.35665 | 29093 ft | 360 kts | 205° |
| 2026-04-15 14:54 | 46.40399 | 1.34380 | 28818 ft | 359 kts | 205° |
| 2026-04-15 14:54 | 46.38069 | 1.33106 | 28547 ft | 357 kts | 205° |
| 2026-04-15 14:54 | 46.35748 | 1.31841 | 28268 ft | 356 kts | 205° |
| 2026-04-15 14:55 | 46.33430 | 1.30581 | 28003 ft | 355 kts | 205° |
| 2026-04-15 14:55 | 46.31120 | 1.29324 | 27734 ft | 354 kts | 205° |
| 2026-04-15 14:55 | 46.28818 | 1.28068 | 27484 ft | 353 kts | 205° |
| 2026-04-15 14:55 | 46.26523 | 1.26814 | 27228 ft | 352 kts | 205° |
| 2026-04-15 14:56 | 46.24238 | 1.25568 | 26976 ft | 350 kts | 205° |
| 2026-04-15 14:56 | 46.21961 | 1.24330 | 26720 ft | 349 kts | 205° |
| 2026-04-15 14:56 | 46.19689 | 1.23098 | 26481 ft | 348 kts | 205° |
| 2026-04-15 14:56 | 46.17427 | 1.21874 | 26232 ft | 347 kts | 205° |
| 2026-04-15 14:57 | 46.15171 | 1.20650 | 25977 ft | 346 kts | 205° |
| 2026-04-15 14:57 | 46.12917 | 1.19425 | 25735 ft | 346 kts | 205° |
| 2026-04-15 14:57 | 46.10672 | 1.18208 | 25509 ft | 344 kts | 205° |
| 2026-04-15 14:57 | 46.08437 | 1.17000 | 25273 ft | 342 kts | 205° |
| 2026-04-15 14:58 | 46.06210 | 1.15798 | 25035 ft | 341 kts | 205° |
| 2026-04-15 14:58 | 46.03992 | 1.14603 | 24804 ft | 340 kts | 205° |
| 2026-04-15 14:58 | 46.01781 | 1.13410 | 24570 ft | 339 kts | 205° |
| 2026-04-15 14:58 | 45.99575 | 1.12220 | 24345 ft | 338 kts | 205° |
| 2026-04-15 14:59 | 45.97377 | 1.11042 | 24115 ft | 337 kts | 205° |
| 2026-04-15 14:59 | 45.95187 | 1.09867 | 23872 ft | 336 kts | 205° |
| 2026-04-15 14:59 | 45.92996 | 1.08689 | 23611 ft | 336 kts | 205° |
| 2026-04-15 14:59 | 45.90811 | 1.07513 | 23339 ft | 335 kts | 205° |
| 2026-04-15 15:00 | 45.88631 | 1.06340 | 23067 ft | 334 kts | 205° |
| 2026-04-15 15:00 | 45.86456 | 1.05172 | 22798 ft | 333 kts | 205° |
| 2026-04-15 15:00 | 45.84308 | 1.03948 | 22525 ft | 330 kts | 210° |
| 2026-04-15 15:00 | 45.82345 | 1.02308 | 22265 ft | 325 kts | 219° |
| 2026-04-15 15:01 | 45.80622 | 1.00239 | 22019 ft | 322 kts | 228° |
| 2026-04-15 15:01 | 45.79175 | 0.97820 | 21755 ft | 319 kts | 236° |
| 2026-04-15 15:01 | 45.77880 | 0.95248 | 21493 ft | 318 kts | 236° |
| 2026-04-15 15:01 | 45.76579 | 0.92681 | 21230 ft | 318 kts | 236° |
| 2026-04-15 15:02 | 45.75276 | 0.90121 | 20979 ft | 318 kts | 236° |
| 2026-04-15 15:02 | 45.73973 | 0.87567 | 20729 ft | 317 kts | 236° |
| 2026-04-15 15:02 | 45.72672 | 0.85018 | 20482 ft | 317 kts | 236° |
| 2026-04-15 15:02 | 45.71375 | 0.82480 | 20283 ft | 315 kts | 236° |
| 2026-04-15 15:03 | 45.70081 | 0.79948 | 20223 ft | 315 kts | 236° |
| 2026-04-15 15:03 | 45.68787 | 0.77412 | 20244 ft | 315 kts | 236° |
| 2026-04-15 15:03 | 45.67500 | 0.74893 | 20238 ft | 313 kts | 236° |
| 2026-04-15 15:03 | 45.66215 | 0.72381 | 20239 ft | 313 kts | 236° |
| 2026-04-15 15:04 | 45.64931 | 0.69872 | 20236 ft | 313 kts | 236° |
| 2026-04-15 15:04 | 45.63647 | 0.67371 | 20236 ft | 312 kts | 236° |
| 2026-04-15 15:04 | 45.62360 | 0.64871 | 20236 ft | 312 kts | 236° |
| 2026-04-15 15:04 | 45.61075 | 0.62371 | 20241 ft | 312 kts | 236° |
| 2026-04-15 15:05 | 45.59793 | 0.59872 | 20244 ft | 312 kts | 236° |
| 2026-04-15 15:05 | 45.58504 | 0.57365 | 20241 ft | 312 kts | 236° |
| 2026-04-15 15:05 | 45.57216 | 0.54866 | 20231 ft | 313 kts | 236° |
| 2026-04-15 15:05 | 45.55925 | 0.52359 | 20241 ft | 314 kts | 236° |
| 2026-04-15 15:06 | 45.53332 | 0.47335 | 20239 ft | 314 kts | 236° |
| 2026-04-15 15:06 | 45.52034 | 0.44825 | 20241 ft | 314 kts | 236° |
| 2026-04-15 15:06 | 45.50736 | 0.42314 | 20242 ft | 314 kts | 236° |
| 2026-04-15 15:07 | 45.49440 | 0.39808 | 20243 ft | 314 kts | 236° |
| 2026-04-15 15:07 | 45.48141 | 0.37306 | 20242 ft | 313 kts | 236° |
| 2026-04-15 15:07 | 45.46845 | 0.34819 | 20241 ft | 312 kts | 236° |
| 2026-04-15 15:07 | 45.45552 | 0.32334 | 20238 ft | 312 kts | 236° |
| 2026-04-15 15:08 | 45.44260 | 0.29851 | 20237 ft | 312 kts | 236° |
| 2026-04-15 15:08 | 45.42968 | 0.27368 | 20238 ft | 312 kts | 236° |
| 2026-04-15 15:08 | 45.41679 | 0.24896 | 19958 ft | 310 kts | 236° |
| 2026-04-15 15:08 | 45.40400 | 0.22438 | 19567 ft | 308 kts | 236° |
| 2026-04-15 15:09 | 45.39131 | 0.19998 | 19194 ft | 306 kts | 236° |
| 2026-04-15 15:09 | 45.37864 | 0.17573 | 18811 ft | 305 kts | 236° |
| 2026-04-15 15:09 | 45.36601 | 0.15152 | 18428 ft | 304 kts | 236° |
| 2026-04-15 15:09 | 45.35345 | 0.12742 | 18025 ft | 303 kts | 236° |
| 2026-04-15 15:10 | 45.34103 | 0.10332 | 17628 ft | 301 kts | 236° |
| 2026-04-15 15:10 | 45.32872 | 0.07928 | 17235 ft | 300 kts | 236° |
| 2026-04-15 15:10 | 45.31644 | 0.05534 | 16869 ft | 299 kts | 236° |
| 2026-04-15 15:10 | 45.30422 | 0.03152 | 16505 ft | 298 kts | 236° |
| 2026-04-15 15:11 | 45.29203 | 0.00779 | 16242 ft | 297 kts | 236° |
| 2026-04-15 15:11 | 45.27987 | -0.01585 | 16061 ft | 295 kts | 237° |
| 2026-04-15 15:11 | 45.26780 | -0.03931 | 15735 ft | 293 kts | 237° |
| 2026-04-15 15:11 | 45.25578 | -0.06267 | 15397 ft | 292 kts | 237° |
| 2026-04-15 15:12 | 45.24382 | -0.08588 | 15070 ft | 291 kts | 237° |
| 2026-04-15 15:12 | 45.23190 | -0.10905 | 14686 ft | 292 kts | 237° |
| 2026-04-15 15:12 | 45.21983 | -0.13253 | 14174 ft | 297 kts | 236° |
| 2026-04-15 15:12 | 45.20764 | -0.15610 | 13548 ft | 294 kts | 236° |
| 2026-04-15 15:13 | 45.19558 | -0.17929 | 12925 ft | 290 kts | 236° |
| 2026-04-15 15:13 | 45.18372 | -0.20214 | 12296 ft | 287 kts | 236° |
| 2026-04-15 15:13 | 45.17194 | -0.22485 | 11701 ft | 286 kts | 235° |
| 2026-04-15 15:13 | 45.15860 | -0.24596 | 11108 ft | 290 kts | 228° |
| 2026-04-15 15:14 | 45.14440 | -0.26644 | 10527 ft | 293 kts | 227° |
| 2026-04-15 15:14 | 45.13008 | -0.28707 | 9932 ft | 294 kts | 227° |
| 2026-04-15 15:14 | 45.11570 | -0.30782 | 9297 ft | 296 kts | 227° |
| 2026-04-15 15:14 | 45.10129 | -0.32862 | 8677 ft | 296 kts | 227° |
| 2026-04-15 15:15 | 45.08686 | -0.34937 | 8065 ft | 296 kts | 227° |
| 2026-04-15 15:15 | 45.07232 | -0.36991 | 7453 ft | 295 kts | 227° |
| 2026-04-15 15:15 | 45.05778 | -0.39027 | 6874 ft | 294 kts | 226° |
| 2026-04-15 15:15 | 45.04317 | -0.41066 | 6258 ft | 296 kts | 226° |
| 2026-04-15 15:16 | 45.02870 | -0.43083 | 5618 ft | 288 kts | 226° |
| 2026-04-15 15:16 | 45.01461 | -0.45046 | 4992 ft | 280 kts | 226° |
| 2026-04-15 15:16 | 45.00095 | -0.46948 | 4352 ft | 273 kts | 227° |
| 2026-04-15 15:16 | 44.98760 | -0.48809 | 3716 ft | 267 kts | 226° |
| 2026-04-15 15:17 | 44.97449 | -0.50638 | 3162 ft | 263 kts | 227° |
| 2026-04-15 15:17 | 44.96181 | -0.52417 | 3012 ft | 251 kts | 228° |
| 2026-04-15 15:17 | 44.94997 | -0.54124 | 3009 ft | 236 kts | 229° |
| 2026-04-15 15:17 | 44.93876 | -0.55744 | 2905 ft | 228 kts | 229° |
| 2026-04-15 15:18 | 44.92772 | -0.57334 | 2642 ft | 226 kts | 229° |
| 2026-04-15 15:18 | 44.91691 | -0.58886 | 2344 ft | 216 kts | 228° |
| 2026-04-15 15:18 | 44.90673 | -0.60346 | 2069 ft | 201 kts | 229° |
| 2026-04-15 15:18 | 44.89724 | -0.61706 | 1836 ft | 189 kts | 229° |
| 2026-04-15 15:19 | 44.88826 | -0.63011 | 1554 ft | 180 kts | 229° |
| 2026-04-15 15:19 | 44.88007 | -0.64199 | 1437 ft | 158 kts | 229° |
| 2026-04-15 15:19 | 44.87255 | -0.65276 | 1109 ft | 151 kts | 229° |
| 2026-04-15 15:19 | 44.86536 | -0.66266 | 909 ft | 138 kts | 227° |
| 2026-04-15 15:20 | 44.85862 | -0.67216 | 728 ft | 136 kts | 232° |
| 2026-04-15 15:20 | 44.85217 | -0.68177 | 561 ft | 135 kts | 229° |
| 2026-04-15 15:20 | 44.84559 | -0.69112 | 377 ft | 134 kts | 228° |
| 2026-04-15 15:20 | 44.83909 | -0.70039 | 217 ft | 132 kts | 230° |
| 2026-04-15 15:21 | 44.83307 | -0.70913 | 166 ft | 108 kts | 225° |
| 2026-04-15 15:21 | 44.82898 | -0.71492 | 165 ft | 58 kts | 226° |
| 2026-04-15 15:21 | 44.82692 | -0.71782 | 168 ft | 35 kts | 225° |
| 2026-04-15 15:21 | 44.82564 | -0.71922 | 167 ft | 17 kts | 178° |
| 2026-04-15 15:22 | 44.82501 | -0.71853 | 166 ft | 6 kts | 127° |
| 2026-04-15 15:22 | 44.82477 | -0.71807 | 166 ft | 5 kts | 127° |
| 2026-04-15 15:22 | 44.82456 | -0.71761 | 166 ft | 7 kts | 114° |
| 2026-04-15 15:22 | 44.82463 | -0.71662 | 166 ft | 11 kts | 57° |
| 2026-04-15 15:23 | 44.82516 | -0.71585 | 166 ft | 14 kts | 45° |
| 2026-04-15 15:23 | 44.82590 | -0.71478 | 165 ft | 16 kts | 46° |
| 2026-04-15 15:23 | 44.82663 | -0.71372 | 166 ft | 14 kts | 45° |
| 2026-04-15 15:23 | 44.82731 | -0.71276 | 165 ft | 14 kts | 45° |
| 2026-04-15 15:24 | 44.82803 | -0.71174 | 164 ft | 16 kts | 45° |
| 2026-04-15 15:24 | 44.82875 | -0.71070 | 165 ft | 14 kts | 45° |
| 2026-04-15 15:24 | 44.82932 | -0.70978 | 165 ft | 10 kts | 62° |
| 2026-04-15 15:24 | 44.82932 | -0.70889 | 165 ft | 9 kts | 100° |
| 2026-04-15 15:25 | 44.82944 | -0.70818 | 165 ft | 7 kts | 50° |
| 2026-04-15 15:25 | 44.82984 | -0.70778 | 165 ft | 7 kts | 34° |
| 2026-04-15 15:25 | 44.83014 | -0.70741 | 165 ft | 2 kts | 71° |
| 2026-04-15 15:25 | 44.83011 | -0.70719 | 165 ft | 2 kts | 114° |
| 2026-04-15 15:26 | 44.83003 | -0.70703 | 165 ft | 2 kts | 128° |
| 2026-04-15 15:26 | 44.82988 | -0.70684 | 165 ft | 3 kts | 137° |
| 2026-04-15 15:26 | 44.82976 | -0.70667 | 165 ft | 2 kts | 135° |
| 2026-04-15 15:26 | 44.82968 | -0.70658 | 165 ft | 1 kts | 136° |
| 2026-04-15 15:27 | 44.82967 | -0.70656 | 165 ft | 0 kts | 136° |
| 2026-04-15 15:27 | 44.82967 | -0.70655 | 165 ft | 0 kts | 136° |
| 2026-04-15 15:30 | 44.82966 | -0.70655 | 166 ft | 0 kts | 136° |